createdAt,value
2023-03-23T15:59:45.844Z,19.35
2023-03-23T16:02:24.240Z,19.23
2023-03-23T16:04:52.784Z,19.22
2023-03-23T16:07:24.662Z,19.10
2023-03-23T16:09:52.278Z,19.09
2023-03-23T16:12:23.165Z,19.08
2023-03-23T16:14:50.831Z,18.99
2023-03-23T16:17:21.769Z,19.05
2023-03-23T16:19:50.057Z,18.97
2023-03-23T16:22:18.544Z,18.96
2023-03-23T16:24:46.547Z,18.89
2023-03-23T16:27:15.078Z,18.90
2023-03-23T16:30:02.272Z,18.85
2023-03-23T16:32:30.851Z,18.75
2023-03-23T16:34:58.533Z,18.69
2023-03-23T16:37:26.152Z,18.73
2023-03-23T16:39:53.789Z,18.64
2023-03-23T16:42:21.084Z,18.63
2023-03-23T16:44:50.807Z,18.61
2023-03-23T16:47:25.728Z,18.62
2023-03-23T16:49:54.085Z,18.50
2023-03-23T16:52:21.776Z,18.45
2023-03-23T16:54:49.355Z,18.38
2023-03-23T16:57:16.754Z,18.39
2023-03-23T16:59:44.457Z,18.43
2023-03-23T17:02:13.009Z,18.41
2023-03-23T17:04:46.306Z,18.44
2023-03-23T17:07:14.726Z,18.36
2023-03-23T17:09:42.753Z,18.19
2023-03-23T17:12:10.254Z,18.23
2023-03-23T17:14:37.909Z,18.16
2023-03-23T17:17:05.928Z,18.18
2023-03-23T17:19:34.314Z,18.18
2023-03-23T17:22:02.069Z,18.18
2023-03-23T17:24:29.795Z,18.09
2023-03-23T17:26:58.577Z,18.09
2023-03-23T17:29:26.388Z,18.12
2023-03-23T17:31:53.812Z,18.07
2023-03-23T17:34:21.573Z,18.03
2023-03-23T17:36:49.224Z,18.04
2023-03-23T17:39:17.574Z,18.09
2023-03-23T17:41:45.352Z,18.06
2023-03-23T17:44:12.983Z,17.99
2023-03-23T17:46:40.258Z,18.16
2023-03-23T17:49:07.833Z,18.17
2023-03-23T17:51:35.516Z,17.99
2023-03-23T17:54:03.202Z,17.95
2023-03-23T17:56:30.893Z,18.01
2023-03-23T17:58:58.641Z,17.89
2023-03-23T18:01:26.205Z,17.94
2023-03-23T18:03:53.982Z,17.76
2023-03-23T18:06:21.379Z,17.72
2023-03-23T18:08:49.203Z,17.72
2023-03-23T18:11:16.532Z,17.69
2023-03-23T18:13:44.097Z,17.58
2023-03-23T18:16:11.391Z,17.55
2023-03-23T18:18:40.518Z,17.55
2023-03-23T18:21:10.761Z,17.56
2023-03-23T18:23:49.294Z,17.58
2023-03-23T18:26:24.394Z,17.62
2023-03-23T18:28:52.422Z,17.53
2023-03-23T18:31:21.165Z,17.48
2023-03-23T18:33:51.725Z,17.46
2023-03-23T18:36:23.421Z,17.43
2023-03-23T18:38:51.563Z,17.49
2023-03-23T18:41:19.256Z,17.36
2023-03-23T18:43:47.246Z,17.38
2023-03-23T18:46:14.746Z,17.36
2023-03-23T18:48:42.634Z,17.39
2023-03-23T18:51:10.564Z,17.39
2023-03-23T18:53:38.313Z,17.38
2023-03-23T18:56:17.402Z,17.35
2023-03-23T18:58:46.320Z,17.35
2023-03-23T19:01:17.213Z,17.28
2023-03-23T19:03:46.032Z,17.31
2023-03-23T19:06:23.993Z,17.50
2023-03-23T19:08:53.559Z,17.53
2023-03-23T19:11:27.580Z,17.50
2023-03-23T19:14:02.163Z,17.56
2023-03-23T19:16:35.913Z,17.62
2023-03-23T19:19:07.746Z,17.44
2023-03-23T19:21:35.635Z,17.48
2023-03-23T19:24:03.923Z,17.54
2023-03-23T19:26:39.635Z,17.47
2023-03-23T19:31:48.253Z,17.31
2023-03-23T19:34:16.919Z,17.34
2023-03-23T19:36:54.341Z,17.16
2023-03-23T19:39:27.332Z,16.92
2023-03-23T19:41:56.255Z,17.09
2023-03-23T19:44:23.938Z,17.02
2023-03-23T19:46:51.820Z,17.04
2023-03-23T19:49:21.098Z,16.93
2023-03-23T19:51:49.037Z,16.87
2023-03-23T19:54:16.740Z,16.74
2023-03-23T19:56:44.770Z,16.82
2023-03-23T19:59:16.313Z,16.79
2023-03-23T20:01:45.482Z,16.66
2023-03-23T20:04:13.333Z,16.63
2023-03-23T20:06:41.521Z,16.62
2023-03-23T20:09:09.466Z,16.60
2023-03-23T20:11:37.327Z,16.61
2023-03-23T20:14:05.698Z,16.66
2023-03-23T20:16:33.642Z,16.80
2023-03-23T20:19:01.279Z,16.71
2023-03-23T20:21:29.412Z,16.69
2023-03-23T20:23:58.878Z,16.78
2023-03-23T20:26:34.464Z,16.74
2023-03-23T20:29:02.786Z,16.67
2023-03-23T20:31:36.740Z,16.62
2023-03-23T20:34:11.514Z,16.82
2023-03-23T20:36:45.518Z,16.80
2023-03-23T20:39:21.414Z,16.85
2023-03-23T20:41:58.757Z,16.90
2023-03-23T20:44:31.119Z,16.84
2023-03-23T20:46:59.814Z,16.87
2023-03-23T20:49:38.680Z,16.91
2023-03-23T20:52:08.482Z,16.94
2023-03-23T20:54:38.072Z,16.92
2023-03-23T20:57:05.603Z,16.79
2023-03-23T20:59:33.513Z,16.90
2023-03-23T21:02:01.256Z,16.92
2023-03-23T21:04:30.286Z,16.77
2023-03-23T21:06:57.917Z,16.85
2023-03-23T21:09:25.736Z,16.76
2023-03-23T21:11:53.887Z,16.80
2023-03-23T21:14:21.621Z,16.82
2023-03-23T21:16:49.255Z,16.77
2023-03-23T21:19:17.324Z,16.63
2023-03-23T21:21:56.835Z,16.66
2023-03-23T21:24:31.388Z,16.68
2023-03-23T21:27:03.070Z,16.74
2023-03-23T21:29:30.947Z,16.77
2023-03-23T21:34:29.768Z,16.86
2023-03-23T21:36:58.647Z,16.73
2023-03-23T21:39:26.416Z,16.71
2023-03-23T21:41:54.038Z,16.80
2023-03-23T21:44:22.246Z,16.90
2023-03-23T21:46:56.182Z,16.87
2023-03-23T21:49:27.916Z,16.77
2023-03-23T21:52:03.422Z,16.90
2023-03-23T21:54:44.833Z,16.83
2023-03-23T21:57:18.468Z,16.68
2023-03-23T22:00:23.894Z,16.64
2023-03-23T22:02:53.319Z,16.65
2023-03-23T22:05:40.654Z,16.61
2023-03-23T22:08:10.500Z,16.63
2023-03-23T22:11:01.198Z,16.64
2023-03-23T22:13:34.527Z,16.60
2023-03-23T22:16:10.665Z,16.59
2023-03-23T22:19:02.616Z,16.70
2023-03-23T22:21:31.711Z,16.78
2023-03-23T22:24:09.758Z,16.85
2023-03-23T22:26:42.523Z,16.93
2023-03-23T22:29:11.396Z,16.95
2023-03-23T22:31:40.589Z,16.96
2023-03-23T22:34:08.954Z,16.95
2023-03-23T22:36:44.282Z,16.95
2023-03-23T22:39:12.676Z,17.05
2023-03-23T22:41:42.386Z,17.07
2023-03-23T22:44:20.501Z,17.02
2023-03-23T22:46:49.399Z,17.02
2023-03-23T22:49:16.861Z,17.10
2023-03-23T22:51:45.341Z,16.89
2023-03-23T22:54:13.044Z,16.97
2023-03-23T22:56:41.134Z,16.86
2023-03-23T22:59:09.956Z,16.87
2023-03-23T23:01:37.802Z,16.84
2023-03-23T23:04:11.829Z,16.89
2023-03-23T23:06:40.754Z,16.96
2023-03-23T23:09:10.829Z,16.92
2023-03-23T23:11:48.859Z,16.85
2023-03-23T23:14:17.794Z,16.86
2023-03-23T23:16:47.499Z,16.93
2023-03-23T23:19:16.183Z,16.85
2023-03-23T23:21:47.564Z,16.89
2023-03-23T23:24:18.151Z,16.83
2023-03-23T23:26:55.677Z,16.80
2023-03-23T23:29:23.705Z,16.87
2023-03-23T23:32:11.520Z,16.78
2023-03-23T23:34:46.078Z,16.80
2023-03-23T23:37:22.908Z,16.72
2023-03-23T23:39:50.348Z,16.78
2023-03-23T23:42:18.436Z,16.91
2023-03-23T23:44:46.686Z,16.74
2023-03-23T23:47:16.706Z,16.94
2023-03-23T23:49:45.318Z,16.99
2023-03-23T23:52:20.373Z,16.88
2023-03-23T23:54:54.734Z,16.77
2023-03-23T23:57:29.566Z,16.84
2023-03-23T23:59:59.667Z,16.64
